Time;durP1;ratioP1;P1;durP2;ratioP2;P2;SDS_P1;SDS_P2;PMS_P1;PMS_P2;Temp;Humidity;BMP_temperature;BMP_pressure;BME280_temperature;BME280_humidity;BME280_pressure;Samples;Min_cycle;Max_cycle;Signal;HPM_P1;HPM_P2
2021/11/27 00:02:13;;;;;;;0.25;0.10;;;23.30;37.70;;;;;;5080997;28;20048;-53
2021/11/27 00:04:40;;;;;;;0.13;0.00;;;23.30;37.70;;;;;;5076937;28;20036;-53
2021/11/27 00:07:07;;;;;;;0.13;0.10;;;23.30;37.70;;;;;;5082755;28;20055;-56
2021/11/27 00:09:34;;;;;;;0.30;0.10;;;23.20;37.60;;;;;;5081367;28;20423;-57
2021/11/27 00:12:01;;;;;;;2.67;0.20;;;23.20;37.60;;;;;;5083065;28;20428;-52
2021/11/27 00:14:31;;;;;;;0.55;0.10;;;23.20;37.60;;;;;;5079858;28;20047;-59
2021/11/27 00:16:58;;;;;;;0.73;0.10;;;23.20;37.60;;;;;;5079944;28;20067;-55
2021/11/27 00:19:25;;;;;;;0.43;0.10;;;23.10;37.50;;;;;;5081388;28;20040;-54
2021/11/27 00:21:52;;;;;;;1.17;0.30;;;23.10;37.50;;;;;;5082594;28;20047;-55
2021/11/27 00:24:19;;;;;;;2.30;0.10;;;23.10;37.50;;;;;;5056486;28;20671;-54
2021/11/27 00:26:46;;;;;;;0.52;0.10;;;23.10;37.60;;;;;;5082660;28;20056;-54
2021/11/27 00:29:14;;;;;;;3.03;0.10;;;23.10;37.50;;;;;;5050875;28;20058;-54
2021/11/27 00:31:42;;;;;;;0.35;0.30;;;23.00;37.50;;;;;;5080312;28;20044;-55
2021/11/27 00:34:10;;;;;;;0.20;0.13;;;23.00;37.50;;;;;;5060433;28;20109;-51
2021/11/27 00:36:37;;;;;;;0.50;0.20;;;23.00;37.50;;;;;;5064764;28;20695;-56
2021/11/27 00:39:06;;;;;;;0.15;0.13;;;23.00;37.50;;;;;;5077935;28;20050;-56
2021/11/27 00:41:33;;;;;;;2.22;0.73;;;22.90;37.50;;;;;;5084045;28;23398;-55
2021/11/27 00:44:00;;;;;;;1.52;0.10;;;23.00;37.50;;;;;;5056674;28;20542;-56
2021/11/27 00:46:27;;;;;;;0.32;0.10;;;22.90;37.40;;;;;;5065298;28;20039;-57
2021/11/27 00:48:55;;;;;;;0.55;0.10;;;22.90;37.40;;;;;;5086156;28;20055;-55
2021/11/27 00:51:25;;;;;;;2.65;0.20;;;22.90;37.40;;;;;;5080773;28;20609;-54
2021/11/27 00:53:52;;;;;;;8.30;0.95;;;22.90;37.40;;;;;;5058546;28;20397;-52
2021/11/27 00:56:20;;;;;;;0.28;0.10;;;22.90;37.40;;;;;;5080982;28;20046;-53
2021/11/27 00:58:48;;;;;;;0.60;0.10;;;22.80;37.30;;;;;;5081173;28;20040;-54
2021/11/27 01:01:18;;;;;;;0.13;0.10;;;22.80;37.30;;;;;;5082440;28;20051;-56
2021/11/27 01:03:46;;;;;;;0.20;0.10;;;22.80;37.30;;;;;;5077757;28;20048;-55
2021/11/27 01:06:19;;;;;;;0.57;0.10;;;22.80;37.30;;;;;;5064938;28;20498;-56
2021/11/27 01:08:48;;;;;;;1.20;0.10;;;22.80;37.30;;;;;;5059012;28;20044;-52
2021/11/27 01:11:19;;;;;;;0.65;0.10;;;22.80;37.30;;;;;;5062857;28;20047;-54
2021/11/27 01:13:48;;;;;;;1.08;0.30;;;22.70;37.20;;;;;;5059406;28;20040;-57
2021/11/27 01:16:15;;;;;;;0.10;0.10;;;22.70;37.20;;;;;;5080980;28;20036;-56
2021/11/27 01:18:43;;;;;;;1.05;0.45;;;22.70;37.20;;;;;;5088846;28;20055;-54
2021/11/27 01:21:13;;;;;;;0.10;0.03;;;22.70;37.20;;;;;;5079132;28;20032;-56
2021/11/27 01:23:42;;;;;;;1.40;0.52;;;22.70;37.20;;;;;;5056932;28;20136;-56
2021/11/27 01:26:10;;;;;;;1.45;0.10;;;22.70;37.20;;;;;;5078349;28;20158;-54
2021/11/27 01:28:38;;;;;;;0.65;0.20;;;22.70;37.20;;;;;;5064132;28;20047;-50
2021/11/27 01:31:05;;;;;;;1.55;0.10;;;22.60;37.20;;;;;;5083356;28;20051;-56
2021/11/27 01:33:33;;;;;;;0.13;0.13;;;22.60;37.20;;;;;;5062437;28;20093;-51
2021/11/27 01:36:02;;;;;;;0.20;0.10;;;22.60;37.20;;;;;;5059916;28;20117;-51
2021/11/27 01:38:29;;;;;;;0.10;0.10;;;22.60;37.30;;;;;;5065771;28;20130;-54
2021/11/27 01:40:58;;;;;;;0.52;0.10;;;22.60;37.30;;;;;;5065851;28;20688;-51
2021/11/27 01:43:26;;;;;;;0.00;0.00;;;22.60;37.30;;;;;;5066496;28;20059;-54
2021/11/27 01:45:54;;;;;;;0.63;0.10;;;22.50;37.20;;;;;;5067106;28;20051;-51
2021/11/27 01:48:22;;;;;;;0.25;0.00;;;22.50;37.20;;;;;;5064607;28;20424;-56
2021/11/27 01:50:53;;;;;;;1.10;0.20;;;22.50;37.20;;;;;;5066108;28;20046;-52
2021/11/27 01:53:22;;;;;;;1.55;0.10;;;22.50;37.20;;;;;;5061251;28;20044;-56
2021/11/27 01:55:52;;;;;;;0.63;0.10;;;22.50;37.20;;;;;;5061589;28;20829;-53
2021/11/27 01:58:21;;;;;;;0.17;0.10;;;22.50;37.20;;;;;;5085026;28;20674;-55
2021/11/27 02:00:52;;;;;;;0.10;0.00;;;22.50;37.20;;;;;;5084984;28;20059;-54
2021/11/27 02:03:20;;;;;;;0.30;0.10;;;22.50;37.30;;;;;;5065712;28;20140;-54
2021/11/27 02:06:07;;;;;;;1.38;0.10;;;22.50;37.20;;;;;;5064016;28;20151;-53
2021/11/27 02:08:36;;;;;;;0.75;0.10;;;22.40;37.20;;;;;;5066110;28;20055;-53
2021/11/27 02:11:04;;;;;;;0.20;0.10;;;22.40;37.80;;;;;;5062596;28;20068;-54
2021/11/27 02:13:36;;;;;;;0.10;0.10;;;22.40;37.20;;;;;;5069238;28;20041;-51
2021/11/27 02:16:06;;;;;;;0.10;0.00;;;22.40;37.20;;;;;;5083542;28;20482;-53
2021/11/27 02:18:33;;;;;;;1.20;0.10;;;22.40;37.20;;;;;;5066302;28;20133;-50
2021/11/27 02:21:05;;;;;;;1.75;0.00;;;22.40;37.20;;;;;;5079486;28;20050;-52
2021/11/27 02:23:33;;;;;;;0.57;0.10;;;22.40;37.20;;;;;;5062743;28;20743;-52
2021/11/27 02:26:01;;;;;;;1.05;0.00;;;22.40;37.10;;;;;;5063703;28;20063;-51
2021/11/27 02:28:34;;;;;;;0.13;0.00;;;22.40;37.10;;;;;;5083939;28;20052;-49
2021/11/27 02:31:02;;;;;;;0.10;0.10;;;22.30;37.00;;;;;;5086683;28;20465;-53
2021/11/27 02:33:29;;;;;;;0.40;0.10;;;22.30;37.10;;;;;;5058647;28;20719;-54
2021/11/27 02:35:56;;;;;;;1.65;0.50;;;22.40;37.10;;;;;;5079509;28;20059;-49
2021/11/27 02:38:24;;;;;;;0.00;0.00;;;22.30;37.10;;;;;;5068400;28;20046;-54
2021/11/27 02:40:52;;;;;;;2.42;0.10;;;22.30;37.10;;;;;;5066951;28;20075;-51
2021/11/27 02:43:19;;;;;;;0.10;0.10;;;22.30;37.10;;;;;;5068473;28;20516;-50
2021/11/27 02:45:47;;;;;;;0.68;0.28;;;22.30;37.10;;;;;;5081418;28;20047;-52
2021/11/27 02:48:14;;;;;;;0.00;0.00;;;22.30;37.00;;;;;;5083862;28;20311;-51
2021/11/27 02:50:42;;;;;;;0.32;0.00;;;22.30;37.10;;;;;;5060866;28;20118;-55
2021/11/27 02:53:09;;;;;;;0.85;0.00;;;22.30;37.00;;;;;;5061715;28;20147;-51
2021/11/27 02:55:38;;;;;;;0.63;0.00;;;22.30;37.10;;;;;;5062921;28;20065;-54
2021/11/27 02:58:05;;;;;;;0.08;0.00;;;22.30;37.00;;;;;;5067963;28;20047;-52
2021/11/27 03:00:32;;;;;;;1.70;0.05;;;22.20;37.50;;;;;;5067491;28;20072;-53
2021/11/27 03:02:59;;;;;;;0.40;0.00;;;22.20;36.90;;;;;;5086111;28;20032;-49
2021/11/27 03:05:26;;;;;;;0.10;0.08;;;22.20;36.90;;;;;;5077451;28;20075;-52
2021/11/27 03:07:53;;;;;;;0.57;0.10;;;22.20;36.80;;;;;;5083417;28;20040;-49
2021/11/27 03:10:21;;;;;;;0.28;0.10;;;22.20;36.90;;;;;;5081409;28;20129;-52
2021/11/27 03:12:50;;;;;;;0.10;0.10;;;22.20;36.90;;;;;;5085523;28;20044;-51
2021/11/27 03:15:19;;;;;;;0.13;0.05;;;22.20;36.80;;;;;;5060433;28;20475;-52
2021/11/27 03:17:47;;;;;;;0.20;0.00;;;22.20;36.90;;;;;;5078976;28;20789;-56
2021/11/27 03:20:16;;;;;;;1.33;0.00;;;22.20;36.90;;;;;;5064438;28;20456;-55
2021/11/27 03:22:44;;;;;;;0.52;0.00;;;22.20;36.90;;;;;;5067140;28;20042;-55
2021/11/27 03:25:12;;;;;;;0.32;0.00;;;22.20;36.80;;;;;;5062610;28;20075;-55
2021/11/27 03:27:43;;;;;;;1.95;0.00;;;22.10;36.70;;;;;;5084215;28;20591;-53
2021/11/27 03:30:15;;;;;;;0.35;0.00;;;22.10;36.70;;;;;;5061538;28;20043;-56
2021/11/27 03:32:46;;;;;;;0.20;0.00;;;22.10;36.70;;;;;;5062788;28;20040;-56
2021/11/27 03:35:19;;;;;;;0.05;0.05;;;22.10;36.70;;;;;;5061487;28;20113;-54
2021/11/27 03:37:48;;;;;;;0.38;0.05;;;22.10;36.60;;;;;;5060995;28;20485;-55
2021/11/27 03:40:21;;;;;;;0.40;0.00;;;22.10;36.60;;;;;;5066572;28;20044;-57
2021/11/27 03:42:50;;;;;;;0.13;0.10;;;22.10;36.60;;;;;;5085496;28;20052;-55
2021/11/27 03:45:20;;;;;;;0.10;0.00;;;22.10;36.60;;;;;;5078965;28;20043;-57
2021/11/27 03:48:04;;;;;;;0.03;0.00;;;22.10;36.50;;;;;;5062217;28;20078;-55
2021/11/27 03:50:37;;;;;;;0.10;0.10;;;22.10;36.50;;;;;;5063288;28;20504;-54
2021/11/27 03:53:06;;;;;;;0.10;0.00;;;22.10;36.50;;;;;;5061734;28;20319;-57
2021/11/27 03:55:34;;;;;;;0.47;0.00;;;22.10;36.50;;;;;;5065856;28;20546;-56
2021/11/27 03:58:01;;;;;;;0.40;0.00;;;22.10;36.50;;;;;;5068428;28;20047;-55
2021/11/27 04:00:30;;;;;;;0.00;0.00;;;22.10;36.50;;;;;;5065942;28;20460;-53
2021/11/27 04:02:59;;;;;;;0.10;0.00;;;22.10;36.60;;;;;;5057256;28;20110;-57
2021/11/27 04:05:27;;;;;;;0.05;0.00;;;22.10;36.60;;;;;;5058087;28;20059;-55
2021/11/27 04:07:56;;;;;;;0.03;0.00;;;22.00;36.60;;;;;;5062776;28;20043;-56
2021/11/27 04:10:24;;;;;;;0.00;0.00;;;22.00;37.00;;;;;;5065291;28;20799;-54
2021/11/27 04:12:53;;;;;;;1.00;0.00;;;22.00;36.60;;;;;;5067257;28;20040;-55
2021/11/27 04:15:20;;;;;;;0.32;0.32;;;22.00;36.60;;;;;;5075385;28;20118;-55
2021/11/27 04:17:49;;;;;;;0.30;0.00;;;22.00;36.60;;;;;;5067561;28;20039;-49
2021/11/27 04:20:16;;;;;;;0.20;0.00;;;22.00;36.60;;;;;;5062939;28;20047;-54
2021/11/27 04:22:43;;;;;;;0.70;0.35;;;22.00;36.50;;;;;;5058489;28;20043;-54
2021/11/27 04:25:11;;;;;;;0.47;0.00;;;22.00;36.50;;;;;;5062452;28;20075;-50
2021/11/27 04:27:38;;;;;;;2.92;0.68;;;22.00;36.40;;;;;;5082536;28;20131;-54
2021/11/27 04:30:08;;;;;;;0.20;0.20;;;22.00;36.40;;;;;;5078740;28;20042;-52
2021/11/27 04:32:38;;;;;;;0.00;0.00;;;22.00;36.30;;;;;;5066369;28;20040;-54
2021/11/27 04:35:16;;;;;;;;;;;22.00;36.30;;;;;;5060588;28;20136;-54
2021/11/27 04:37:44;;;;;;;0.38;0.00;;;21.90;36.20;;;;;;5078932;28;20010;-53
2021/11/27 04:40:15;;;;;;;0.10;0.10;;;21.90;36.30;;;;;;5066476;28;20115;-55
2021/11/27 04:42:44;;;;;;;0.47;0.00;;;21.90;36.20;;;;;;5082347;28;20052;-53
2021/11/27 04:45:12;;;;;;;3.00;0.10;;;21.90;36.30;;;;;;5056586;28;20051;-52
2021/11/27 04:47:42;;;;;;;0.00;0.00;;;21.90;36.20;;;;;;5068454;28;20042;-52
2021/11/27 04:50:13;;;;;;;0.73;0.00;;;22.00;36.20;;;;;;5061905;28;20040;-56
2021/11/27 04:52:41;;;;;;;13.25;0.20;;;21.90;36.10;;;;;;5060672;28;20089;-52
2021/11/27 04:55:10;;;;;;;0.10;0.10;;;21.90;36.00;;;;;;5077230;28;20048;-53
2021/11/27 04:57:45;;;;;;;1.05;0.00;;;22.00;36.10;;;;;;5080921;28;20059;-53
2021/11/27 05:00:18;;;;;;;2.30;0.10;;;21.90;36.00;;;;;;5064070;28;20071;-54
2021/11/27 05:02:45;;;;;;;0.55;0.10;;;21.90;36.00;;;;;;5066396;28;20426;-56
2021/11/27 05:05:12;;;;;;;2.17;0.10;;;21.90;35.90;;;;;;5057067;28;20147;-53
2021/11/27 05:07:40;;;;;;;0.10;0.00;;;21.90;35.90;;;;;;5064865;28;20072;-55
2021/11/27 05:10:08;;;;;;;0.10;0.10;;;21.90;35.90;;;;;;5067900;28;20040;-53
2021/11/27 05:12:35;;;;;;;0.28;0.10;;;21.90;35.90;;;;;;5067901;28;20051;-52
2021/11/27 05:15:02;;;;;;;0.10;0.00;;;21.90;35.90;;;;;;5078480;28;20553;-51
2021/11/27 05:17:29;;;;;;;0.85;0.00;;;21.90;35.90;;;;;;5066619;28;20048;-55
2021/11/27 05:19:59;;;;;;;6.22;0.10;;;21.90;35.80;;;;;;5066467;28;20028;-53
2021/11/27 05:22:27;;;;;;;0.30;0.10;;;21.90;35.80;;;;;;5067089;28;20044;-53
2021/11/27 05:24:55;;;;;;;0.15;0.00;;;21.90;35.80;;;;;;5082104;28;20048;-55
2021/11/27 05:27:40;;;;;;;0.35;0.00;;;21.90;35.80;;;;;;5068267;28;20095;-55
2021/11/27 05:30:17;;;;;;;0.90;0.10;;;21.90;35.80;;;;;;5081118;28;20146;-51
2021/11/27 05:33:07;;;;;;;0.50;0.00;;;21.80;35.80;;;;;;5072574;28;20436;-54
2021/11/27 05:35:40;;;;;;;0.10;0.00;;;21.80;35.80;;;;;;5063733;28;20301;-53
2021/11/27 05:38:09;;;;;;;1.70;0.00;;;21.80;35.80;;;;;;5086970;28;20039;-50
2021/11/27 05:40:38;;;;;;;0.03;0.03;;;21.80;35.80;;;;;;5068641;28;20036;-52
2021/11/27 05:43:05;;;;;;;0.15;0.10;;;21.80;35.80;;;;;;5066530;28;20058;-52
2021/11/27 05:45:33;;;;;;;2.15;0.00;;;21.80;35.80;;;;;;5061221;28;20050;-53
2021/11/27 05:48:02;;;;;;;0.98;0.00;;;21.80;35.80;;;;;;5071263;28;20050;-52
2021/11/27 05:50:49;;;;;;;3.08;0.00;;;21.80;35.80;;;;;;5065471;28;20043;-48
2021/11/27 05:53:18;;;;;;;0.03;0.00;;;21.80;35.80;;;;;;5083674;28;20056;-52
2021/11/27 05:55:48;;;;;;;0.65;0.30;;;21.80;35.80;;;;;;5081352;28;20055;-52
2021/11/27 05:58:16;;;;;;;0.28;0.00;;;21.80;35.80;;;;;;5082765;28;20058;-54
2021/11/27 06:00:43;;;;;;;0.60;0.00;;;21.80;36.40;;;;;;5084433;28;20120;-52
2021/11/27 06:03:11;;;;;;;0.57;0.00;;;21.80;35.80;;;;;;5084262;28;20344;-51
2021/11/27 06:05:38;;;;;;;1.15;0.25;;;21.80;35.70;;;;;;5065019;28;20504;-55
2021/11/27 06:08:06;;;;;;;1.88;0.00;;;21.80;35.80;;;;;;5083037;28;20044;-55
2021/11/27 06:10:33;;;;;;;0.30;0.00;;;21.80;35.80;;;;;;5084998;28;20385;-53
2021/11/27 06:13:02;;;;;;;0.20;0.00;;;21.80;35.80;;;;;;5083919;28;20032;-54
2021/11/27 06:15:29;;;;;;;0.50;0.15;;;21.70;35.70;;;;;;5080558;28;20497;-56
2021/11/27 06:17:58;;;;;;;0.20;0.00;;;21.80;35.70;;;;;;5069924;28;20134;-45
2021/11/27 06:20:26;;;;;;;3.05;0.20;;;21.70;35.70;;;;;;5085323;28;20046;-52
2021/11/27 06:22:54;;;;;;;1.40;0.10;;;21.80;35.70;;;;;;5081889;28;20039;-56
2021/11/27 06:25:21;;;;;;;1.15;0.08;;;21.70;35.70;;;;;;5080685;28;20044;-56
2021/11/27 06:27:48;;;;;;;0.70;0.00;;;21.70;35.70;;;;;;5066336;28;20521;-55
2021/11/27 06:30:17;;;;;;;0.70;0.10;;;21.70;35.60;;;;;;5085743;28;20463;-54
2021/11/27 06:32:44;;;;;;;0.10;0.00;;;21.70;35.60;;;;;;5084643;28;20045;-52
2021/11/27 06:35:12;;;;;;;0.15;0.10;;;21.70;35.60;;;;;;5080412;28;20043;-56
2021/11/27 06:37:39;;;;;;;1.25;0.10;;;21.70;35.60;;;;;;5082554;28;20044;-56
2021/11/27 06:40:07;;;;;;;0.60;0.10;;;21.70;35.60;;;;;;5087404;28;20467;-54
2021/11/27 06:42:41;;;;;;;0.73;0.00;;;21.70;35.60;;;;;;5064862;28;20052;-57
2021/11/27 06:45:19;;;;;;;0.90;0.00;;;21.70;35.50;;;;;;5055027;28;20114;-54
2021/11/27 06:48:04;;;;;;;1.10;0.10;;;21.70;35.60;;;;;;5084212;28;20648;-53
2021/11/27 06:50:31;;;;;;;0.15;0.10;;;21.70;35.60;;;;;;5084699;28;20090;-54
2021/11/27 06:52:58;;;;;;;0.90;0.05;;;21.70;35.60;;;;;;5077327;28;20040;-54
2021/11/27 06:55:25;;;;;;;0.22;0.10;;;21.70;35.60;;;;;;5079601;28;20044;-54
2021/11/27 06:57:53;;;;;;;0.95;0.10;;;21.70;35.70;;;;;;5071052;28;20119;-54
2021/11/27 07:00:21;;;;;;;1.00;0.40;;;21.70;35.70;;;;;;5084681;28;20068;-54
2021/11/27 07:03:00;;;;;;;1.48;0.08;;;21.70;35.70;;;;;;5082632;28;20051;-56
2021/11/27 07:05:50;;;;;;;0.40;0.10;;;21.70;35.70;;;;;;5052630;28;20513;-55
2021/11/27 07:08:21;;;;;;;0.20;0.08;;;21.60;35.70;;;;;;5065194;28;20575;-53
2021/11/27 07:11:03;;;;;;;0.10;0.00;;;21.60;35.70;;;;;;5094004;27;20036;-53
2021/11/27 07:13:30;;;;;;;0.30;0.00;;;21.70;36.50;;;;;;5045775;28;20443;-51
2021/11/27 07:16:00;;;;;;;0.63;0.05;;;21.70;35.80;;;;;;5080320;28;20040;-55
2021/11/27 07:18:27;;;;;;;0.20;0.00;;;21.70;35.90;;;;;;5084438;28;20048;-54
2021/11/27 07:20:54;;;;;;;0.10;0.00;;;21.70;35.90;;;;;;5083195;28;20040;-54
2021/11/27 07:23:21;;;;;;;0.55;0.28;;;21.60;35.80;;;;;;5080585;28;20063;-56
2021/11/27 07:25:48;;;;;;;1.35;0.08;;;21.70;35.80;;;;;;5077051;28;20131;-55
2021/11/27 07:28:36;;;;;;;2.05;0.15;;;21.60;35.80;;;;;;5062361;28;20485;-55
2021/11/27 07:31:05;;;;;;;0.40;0.05;;;21.60;35.90;;;;;;5085890;28;20040;-55
2021/11/27 07:33:32;;;;;;;3.72;0.10;;;21.60;36.00;;;;;;5081119;28;20431;-55
2021/11/27 07:36:00;;;;;;;0.22;0.10;;;21.60;36.00;;;;;;5077823;28;20046;-55
2021/11/27 07:38:27;;;;;;;0.30;0.10;;;21.60;36.10;;;;;;5080657;28;20032;-55
2021/11/27 07:40:54;;;;;;;1.55;0.80;;;21.60;36.00;;;;;;5081379;28;20039;-53
2021/11/27 07:43:21;;;;;;;0.10;0.10;;;21.60;36.10;;;;;;5079657;28;20726;-51
2021/11/27 07:45:58;;;;;;;1.85;0.10;;;21.60;36.10;;;;;;5078683;28;20149;-56
2021/11/27 07:48:45;;;;;;;1.25;0.22;;;21.60;36.10;;;;;;5084292;28;20036;-56
2021/11/27 07:51:30;;;;;;;4.03;0.00;;;21.60;36.10;;;;;;5080764;28;20058;-54
2021/11/27 07:53:58;;;;;;;1.55;0.00;;;21.60;36.10;;;;;;5060297;28;20112;-55
2021/11/27 07:56:25;;;;;;;0.10;0.00;;;21.60;36.10;;;;;;5083173;28;20703;-56
2021/11/27 07:58:54;;;;;;;0.10;0.10;;;21.60;36.40;;;;;;5081876;28;20044;-77
2021/11/27 08:01:22;;;;;;;1.75;0.10;;;21.60;36.80;;;;;;5049652;28;20121;-75
2021/11/27 08:03:51;;;;;;;0.73;0.10;;;21.60;37.00;;;;;;5083338;28;20443;-75
2021/11/27 08:06:18;;;;;;;0.35;0.00;;;21.60;37.10;;;;;;5064253;28;20058;-76
2021/11/27 08:08:45;;;;;;;1.95;0.05;;;21.60;37.10;;;;;;5077777;28;20044;-71
2021/11/27 08:11:13;;;;;;;1.98;0.20;;;21.70;37.20;;;;;;5082627;28;20054;-75
2021/11/27 08:13:42;;;;;;;0.52;0.00;;;21.70;37.10;;;;;;5082825;28;20040;-74
2021/11/27 08:16:10;;;;;;;0.20;0.00;;;21.70;37.10;;;;;;5080435;28;20251;-75
2021/11/27 08:18:37;;;;;;;0.03;0.03;;;21.80;37.10;;;;;;5083160;28;20058;-75
2021/11/27 08:21:06;;;;;;;0.45;0.00;;;21.80;37.70;;;;;;5079458;28;20064;-75
2021/11/27 08:23:33;;;;;;;0.10;0.00;;;21.90;37.10;;;;;;5079548;28;20130;-69
2021/11/27 08:26:00;;;;;;;2.58;0.45;;;21.90;37.10;;;;;;5077400;28;20484;-68
2021/11/27 08:28:29;;;;;;;2.28;0.00;;;21.90;37.00;;;;;;5084143;28;20070;-65
2021/11/27 08:30:56;;;;;;;0.10;0.00;;;22.00;37.10;;;;;;5083454;28;20710;-65
2021/11/27 08:33:24;;;;;;;0.45;0.00;;;22.00;37.10;;;;;;5078330;28;20059;-62
2021/11/27 08:35:51;;;;;;;0.10;0.00;;;22.10;37.10;;;;;;5074295;28;20047;-62
2021/11/27 08:38:19;;;;;;;0.10;0.10;;;22.10;37.00;;;;;;5077075;28;20504;-58
2021/11/27 08:40:48;;;;;;;1.23;0.00;;;22.10;36.80;;;;;;5080780;28;20471;-59
2021/11/27 08:43:15;;;;;;;0.98;0.00;;;22.20;36.90;;;;;;5075505;28;20080;-65
2021/11/27 08:45:45;;;;;;;3.72;0.10;;;22.20;36.90;;;;;;5078707;28;20063;-65
2021/11/27 08:48:12;;;;;;;0.25;0.10;;;22.30;37.00;;;;;;5080272;28;20472;-60
2021/11/27 08:50:39;;;;;;;5.28;0.10;;;22.30;36.90;;;;;;5081226;28;20043;-71
2021/11/27 08:53:06;;;;;;;0.10;0.00;;;22.40;36.90;;;;;;5062600;28;20051;-64
2021/11/27 08:55:35;;;;;;;1.88;0.50;;;22.50;36.80;;;;;;5076847;28;20051;-63
2021/11/27 08:58:02;;;;;;;1.65;0.10;;;22.50;36.80;;;;;;5073994;28;20044;-62
2021/11/27 09:00:29;;;;;;;1.40;0.25;;;22.50;36.70;;;;;;5082919;28;20125;-66
2021/11/27 09:02:58;;;;;;;0.20;0.00;;;22.60;36.70;;;;;;5080589;28;20036;-68
2021/11/27 09:05:26;;;;;;;0.08;0.08;;;22.60;36.60;;;;;;5076136;28;20044;-67
2021/11/27 09:07:53;;;;;;;1.35;0.00;;;22.70;36.60;;;;;;5080960;28;20044;-63
2021/11/27 09:10:22;;;;;;;0.50;0.00;;;22.70;36.50;;;;;;5080930;28;20050;-70
2021/11/27 09:12:51;;;;;;;0.47;0.00;;;22.80;36.50;;;;;;5065877;28;20420;-65
2021/11/27 09:15:18;;;;;;;0.20;0.00;;;22.80;36.40;;;;;;5075885;28;20044;-62
2021/11/27 09:17:45;;;;;;;0.43;0.00;;;22.80;36.40;;;;;;5063776;28;20401;-63
2021/11/27 09:20:12;;;;;;;0.10;0.03;;;22.90;36.30;;;;;;5079111;28;20511;-59
2021/11/27 09:22:40;;;;;;;0.38;0.10;;;22.90;36.20;;;;;;5080663;28;20045;-62
2021/11/27 09:25:08;;;;;;;0.00;0.00;;;22.90;36.20;;;;;;5082669;28;20539;-69
2021/11/27 09:27:36;;;;;;;1.65;0.10;;;23.00;36.20;;;;;;5047875;28;20060;-62
2021/11/27 09:30:07;;;;;;;0.03;0.00;;;23.00;36.20;;;;;;5081119;28;20040;-62
2021/11/27 09:32:34;;;;;;;0.10;0.10;;;23.00;36.10;;;;;;5079121;28;20068;-61
2021/11/27 09:35:03;;;;;;;3.40;1.27;;;23.00;36.00;;;;;;5077455;28;20048;-61
2021/11/27 09:37:30;;;;;;;0.47;0.10;;;23.00;36.00;;;;;;5083079;28;20149;-57
2021/11/27 09:39:57;;;;;;;0.00;0.00;;;23.10;36.10;;;;;;5084488;28;20051;-60
2021/11/27 09:42:24;;;;;;;0.85;0.10;;;23.10;36.00;;;;;;5081954;28;20070;-59
2021/11/27 09:44:54;;;;;;;3.05;0.00;;;23.10;36.00;;;;;;5076257;28;20051;-62
2021/11/27 09:47:22;;;;;;;2.17;0.00;;;23.10;35.90;;;;;;5080209;28;20046;-61
2021/11/27 09:49:50;;;;;;;4.07;0.10;;;23.10;36.00;;;;;;5078536;28;20506;-67
2021/11/27 09:52:18;;;;;;;0.60;0.10;;;23.10;35.90;;;;;;5085639;28;20046;-63
2021/11/27 09:54:46;;;;;;;4.63;0.00;;;23.10;35.90;;;;;;5078461;28;20048;-63
2021/11/27 09:57:13;;;;;;;3.30;0.75;;;23.10;35.90;;;;;;5082662;28;20044;-61
2021/11/27 09:59:42;;;;;;;0.15;0.10;;;23.20;35.90;;;;;;5087458;28;20123;-61
2021/11/27 10:02:13;;;;;;;0.10;0.10;;;23.20;35.90;;;;;;5088212;28;20044;-64
2021/11/27 10:04:44;;;;;;;0.00;0.00;;;23.20;35.90;;;;;;5078167;28;20461;-65
2021/11/27 10:07:12;;;;;;;2.22;0.03;;;23.30;35.70;;;;;;5087434;28;20131;-65
2021/11/27 10:09:40;;;;;;;4.13;0.00;;;23.30;35.50;;;;;;5086322;28;20048;-65
2021/11/27 10:12:09;;;;;;;0.10;0.00;;;23.30;35.50;;;;;;5083784;28;20050;-65
2021/11/27 10:14:37;;;;;;;0.00;0.00;;;23.30;35.30;;;;;;5061378;28;20091;-66
2021/11/27 10:17:15;;;;;;;0.00;0.00;;;23.30;35.40;;;;;;5084883;28;20785;-66
2021/11/27 10:19:49;;;;;;;0.63;0.00;;;23.40;35.30;;;;;;5086147;28;20036;-67
2021/11/27 10:22:19;;;;;;;0.45;0.00;;;23.40;35.40;;;;;;5081567;28;21272;-72
2021/11/27 10:24:47;;;;;;;0.40;0.05;;;23.40;35.60;;;;;;5079402;28;20122;-69
2021/11/27 10:27:21;;;;;;;0.57;0.00;;;23.50;35.60;;;;;;5093109;28;20055;-71
2021/11/27 10:30:08;;;;;;;0.20;0.00;;;23.50;35.60;;;;;;5085686;28;20085;-73
2021/11/27 10:32:38;;;;;;;0.30;0.10;;;23.50;35.50;;;;;;5082429;28;20503;-77
2021/11/27 10:35:09;;;;;;;0.00;0.00;;;23.50;35.60;;;;;;5079070;28;20054;-63
2021/11/27 10:37:40;;;;;;;0.10;0.05;;;23.60;35.50;;;;;;5082807;28;20148;-63
2021/11/27 10:40:10;;;;;;;2.10;0.00;;;23.60;35.50;;;;;;5088073;28;20147;-64
2021/11/27 10:42:38;;;;;;;5.35;0.10;;;23.60;34.50;;;;;;5087877;28;20051;-64
2021/11/27 10:45:20;;;;;;;7.03;0.10;;;23.60;34.80;;;;;;5079012;28;20055;-64
2021/11/27 10:47:48;;;;;;;7.88;0.30;;;23.70;34.90;;;;;;5081781;28;20059;-63
2021/11/27 10:50:20;;;;;;;1.30;0.25;;;23.70;35.00;;;;;;5084088;28;20036;-65
2021/11/27 10:52:48;;;;;;;1.27;0.00;;;23.80;35.30;;;;;;5079582;28;20170;-62
2021/11/27 10:55:18;;;;;;;1.27;0.20;;;23.70;35.30;;;;;;5078843;28;20051;-67
2021/11/27 10:57:45;;;;;;;2.72;0.00;;;23.80;35.50;;;;;;5085671;28;20134;-62
2021/11/27 11:00:27;;;;;;;0.75;0.10;;;23.80;35.40;;;;;;5083272;28;20123;-66
2021/11/27 11:02:55;;;;;;;0.43;0.10;;;23.80;35.50;;;;;;5085040;28;20055;-61
2021/11/27 11:05:31;;;;;;;2.10;0.10;;;23.80;35.50;;;;;;5079416;28;20040;-67
2021/11/27 11:08:00;;;;;;;2.70;1.13;;;23.90;35.70;;;;;;5082338;28;20059;-63
2021/11/27 11:10:30;;;;;;;0.95;0.43;;;23.90;35.60;;;;;;5066793;28;20044;-64
2021/11/27 11:12:59;;;;;;;0.82;0.10;;;23.90;35.70;;;;;;5066302;28;20127;-62
2021/11/27 11:15:30;;;;;;;3.03;0.20;;;23.90;35.50;;;;;;5077795;28;20051;-64
2021/11/27 11:18:13;;;;;;;0.63;0.10;;;24.00;35.60;;;;;;5081279;28;20101;-63
2021/11/27 11:20:45;;;;;;;0.30;0.10;;;24.00;35.60;;;;;;5085410;28;20035;-61
2021/11/27 11:23:16;;;;;;;3.60;0.10;;;24.00;35.70;;;;;;5079139;28;20096;-63
2021/11/27 11:25:58;;;;;;;1.27;0.10;;;24.00;35.50;;;;;;5079658;28;20516;-62
2021/11/27 11:28:27;;;;;;;4.30;0.00;;;24.10;35.50;;;;;;5081939;28;20040;-64
2021/11/27 11:30:57;;;;;;;0.10;0.10;;;24.10;35.40;;;;;;5099051;27;20047;-72
2021/11/27 11:33:25;;;;;;;0.63;0.00;;;24.10;35.30;;;;;;5082534;28;20071;-64
2021/11/27 11:35:54;;;;;;;0.10;0.10;;;24.20;35.30;;;;;;5078254;28;20106;-69
2021/11/27 11:38:22;;;;;;;0.03;0.00;;;24.20;35.40;;;;;;5080492;28;20524;-64
2021/11/27 11:40:51;;;;;;;0.32;0.10;;;24.30;35.30;;;;;;5084624;28;20606;-66
2021/11/27 11:43:18;;;;;;;0.10;0.05;;;24.30;35.30;;;;;;5081462;28;20735;-65
2021/11/27 11:45:46;;;;;;;0.85;0.13;;;24.30;35.20;;;;;;5079741;28;20043;-63
2021/11/27 11:48:21;;;;;;;4.68;0.10;;;24.30;35.20;;;;;;5083850;28;20066;-53
2021/11/27 11:50:53;;;;;;;0.28;0.00;;;24.30;35.10;;;;;;5085485;28;20488;-55
2021/11/27 11:53:32;;;;;;;4.03;0.10;;;24.40;35.10;;;;;;5080174;28;20698;-65
2021/11/27 11:56:01;;;;;;;0.93;0.30;;;24.40;35.00;;;;;;5079030;28;20036;-62
2021/11/27 11:58:32;;;;;;;0.47;0.15;;;24.40;34.90;;;;;;5082668;28;20044;-62
2021/11/27 12:01:03;;;;;;;2.22;0.10;;;24.50;35.10;;;;;;5083209;28;20401;-66
2021/11/27 12:03:36;;;;;;;1.50;0.10;;;24.50;35.00;;;;;;5078943;28;20277;-59
2021/11/27 12:06:05;;;;;;;0.65;0.00;;;24.50;35.00;;;;;;5081175;28;20745;-60
2021/11/27 12:09:06;;;;;;;0.63;0.10;;;24.50;35.00;;;;;;5064180;28;20514;-64
2021/11/27 12:11:59;;;;;;;0.20;0.10;;;24.60;35.10;;;;;;5081556;28;20050;-62
2021/11/27 12:15:06;;;;;;;0.30;0.10;;;24.50;35.10;;;;;;5076992;28;20119;-62
2021/11/27 12:17:35;;;;;;;0.45;0.28;;;24.50;35.10;;;;;;5084175;28;20071;-72
2021/11/27 12:20:04;;;;;;;1.33;0.20;;;24.50;35.10;;;;;;5084026;28;20044;-63
2021/11/27 12:22:43;;;;;;;0.20;0.13;;;24.50;35.10;;;;;;5081192;28;20051;-69
2021/11/27 12:25:32;;;;;;;2.15;0.10;;;24.50;35.00;;;;;;5079858;28;20953;-69
2021/11/27 12:28:15;;;;;;;0.20;0.20;;;24.50;35.10;;;;;;5062228;28;20416;-70
2021/11/27 12:31:05;;;;;;;0.55;0.20;;;24.50;35.10;;;;;;5081157;28;20048;-63
2021/11/27 12:33:53;;;;;;;0.90;0.10;;;24.50;35.20;;;;;;5082534;28;20043;-68
2021/11/27 12:36:41;;;;;;;1.40;0.52;;;24.50;35.20;;;;;;5082587;28;20040;-51
2021/11/27 12:39:11;;;;;;;1.85;0.35;;;24.40;35.20;;;;;;5081813;28;20614;-62
2021/11/27 12:41:43;;;;;;;3.45;1.00;;;24.40;35.30;;;;;;5080572;28;20043;-65
2021/11/27 12:44:18;;;;;;;0.32;0.10;;;24.40;35.40;;;;;;5074596;28;20040;-56
2021/11/27 12:46:46;;;;;;;;;;;24.40;35.30;;;;;;5080620;28;20586;-57
2021/11/27 12:49:51;;;;;;;0.13;0.10;;;24.30;35.30;;;;;;5086386;28;19950;-57
2021/11/27 12:52:36;;;;;;;0.63;0.10;;;24.40;35.30;;;;;;5081231;28;20416;-57
2021/11/27 12:55:35;;;;;;;0.30;0.20;;;24.40;35.50;;;;;;5078973;28;20101;-58
2021/11/27 12:58:33;;;;;;;0.63;0.30;;;24.40;36.10;;;;;;5083615;28;20572;-60
2021/11/27 13:01:02;;;;;;;4.05;0.30;;;24.40;35.50;;;;;;5081565;28;20048;-52
2021/11/27 13:03:31;;;;;;;0.82;0.40;;;24.40;35.60;;;;;;5077085;28;20553;-66
2021/11/27 13:05:58;;;;;;;0.70;0.20;;;24.40;35.70;;;;;;5080163;28;20054;-67